N5SRF Weather Reports


Display with metric or nautical units.
time (UTC)temp
F
wind
direction
speed
MPH
gust
MPH
rain 1hr
in
rain 24hr
in
rain mn
in
humidity
%
barometer
mb
20240526211357 91 212 1.0 1.0 0.00 0.00 0.00 74 1010.6
20240526210856 91 202 1.0 1.0 0.00 0.00 0.00 73 1010.6
20240526210354 91 144 4.0 5.0 0.00 0.00 0.00 73 1010.7
20240526205853 91 172 3.0 5.0 0.00 0.00 0.00 72 1010.4
20240526205353 91 204 2.0 3.0 0.00 0.00 0.00 73 1010.5
20240526204851 91 191 3.0 5.0 0.00 0.00 0.00 71 1010.5
20240526204351 91 127 2.0 2.0 0.00 0.00 0.00 70 1010.5
20240526203849 92 157 1.0 2.0 0.00 0.00 0.00 71 1010.6
20240526203348 92 159 2.0 3.0 0.00 0.00 0.00 70 1010.6
20240526202847 92 210 7.0 10.0 0.00 0.00 0.00 69 1010.6
20240526202346 92 168 1.0 2.0 0.00 0.00 0.00 71 1010.8
20240526201846 92 159 3.0 5.0 0.00 0.00 0.00 72 1011.1
20240526201345 92 146 3.0 3.0 0.00 0.00 0.00 71 1010.8
20240526200844 93 143 2.0 3.0 0.00 0.00 0.00 69 1010.7
20240526200342 92 174 1.0 5.0 0.00 0.00 0.00 68 1010.7
20240526195840 92 151 3.0 3.0 0.00 0.00 0.00 69 1010.8
20240526195339 93 296 5.0 7.0 0.00 0.00 0.00 69 1011.0
20240526194837 92 233 1.0 2.0 0.00 0.00 0.00 69 1011.2
20240526194337 92 178 2.0 2.0 0.00 0.00 0.00 71 1011.1
20240526193835 92 177 1.0 2.0 0.00 0.00 0.00 69 1011.1
20240526193335 92 165 3.0 3.0 0.00 0.00 0.00 68 1011.4
20240526192834 92 188 4.0 7.0 0.00 0.00 0.00 70 1011.3
20240526192333 92 101 2.0 2.0 0.00 0.00 0.00 68 1011.3
20240526191832 92 188 6.0 9.0 0.00 0.00 0.00 69 1011.1
20240526191332 92 170 1.0 2.0 0.00 0.00 0.00 68 1011.0
20240526190830 92 149 3.0 3.0 0.00 0.00 0.00 70 1010.8
20240526190328 91 110 4.0 5.0 0.00 0.00 0.00 67 1010.8
20240526185828 91 197 9.0 11.0 0.00 0.00 0.00 68 1011.3
20240526185326 91 284 3.0 3.0 0.00 0.00 0.00 68 1011.4
20240526184824 91 134 3.0 3.0 0.00 0.00 0.00 71 1011.0
20240526184323 91 182 7.0 11.0 0.00 0.00 0.00 69 1010.9
20240526183823 91 145 6.0 10.0 0.00 0.00 0.00 69 1011.5
20240526183322 91 201 3.0 3.0 0.00 0.00 0.00 73 1011.5
20240526182821 91 216 3.0 3.0 0.00 0.00 0.00 70 1012.1
20240526182320 90 109 2.0 3.0 0.00 0.00 0.00 69 1012.4
20240526181819 90 105 3.0 6.0 0.00 0.00 0.00 70 1011.9
20240526181317 90 225 6.0 7.0 0.00 0.00 0.00 70 1012.1
20240526180817 90 147 5.0 7.0 0.00 0.00 0.00 70 1012.1
20240526180316 90 162 4.0 6.0 0.00 0.00 0.00 69 1012.3
20240526175815 90 156 4.0 7.0 0.00 0.00 0.00 72 1012.5
20240526175314 90 243 8.0 14.0 0.00 0.00 0.00 73 1012.7
20240526174812 89 139 3.0 6.0 0.00 0.00 0.00 71 1012.7
20240526174310 90 183 2.0 2.0 0.00 0.00 0.00 72 1012.6
20240526173809 90 140 2.0 3.0 0.00 0.00 0.00 69 1012.7
20240526173307 89 189 5.0 8.0 0.00 0.00 0.00 70 1012.8
20240526172807 90 102 3.0 3.0 0.00 0.00 0.00 73 1013.1
20240526172305 89 206 3.0 5.0 0.00 0.00 0.00 71 1012.9
20240526171803 89 186 1.0 2.0 0.00 0.00 0.00 70 1013.2
20240526171303 89 125 6.0 9.0 0.00 0.00 0.00 72 1013.1
20240526170801 89 149 3.0 3.0 0.00 0.00 0.00 72 1013.3
20240526170259 89 177 3.0 3.0 0.00 0.00 0.00 75 1013.1
20240526165759 89 181 6.0 7.0 0.00 0.00 0.00 74 1013.1
20240526165258 89 188 4.0 6.0 0.00 0.00 0.00 75 1013.4
20240526164758 88 135 4.0 6.0 0.00 0.00 0.00 76 1013.5
20240526164257 88 182 2.0 2.0 0.00 0.00 0.00 73 1013.6
20240526163756 88 201 2.0 5.0 0.00 0.00 0.00 75 1013.4
20240526163255 88 147 1.0 2.0 0.00 0.00 0.00 75 1013.4
20240526162753 88 173 1.0 1.0 0.00 0.00 0.00 75 1013.3
20240526162252 87 193 1.0 2.0 0.00 0.00 0.00 77 1013.4
20240526161750 87 164 1.0 2.0 0.00 0.00 0.00 77 1013.6
20240526161249 87 196 2.0 2.0 0.00 0.00 0.00 77 1013.5
20240526160748 87 221 2.0 2.0 0.00 0.00 0.00 75 1013.5
20240526160246 87 158 4.0 6.0 0.00 0.00 0.00 76 1013.4
20240526155745 86 172 0.0 1.0 0.00 0.00 0.00 80 1013.6
20240526155243 85 134 0.0 1.0 0.00 0.00 0.00 79 1013.7
20240526154740 85 114 3.0 3.0 0.00 0.00 0.00 81 1013.6
20240526154238 86 179 0.0 0.0 0.00 0.00 0.00 80 1013.6
20240526153737 86 175 3.0 5.0 0.00 0.00 0.00 80 1013.8
20240526153236 86 182 1.0 1.0 0.00 0.00 0.00 79 1013.8
20240526152736 85 150 3.0 3.0 0.00 0.00 0.00 80 1014.3
20240526152234 85 161 3.0 5.0 0.00 0.00 0.00 81 1014.2
20240526151733 86 123 1.0 2.0 0.00 0.00 0.00 82 1014.4
20240526151232 85 186 1.0 2.0 0.00 0.00 0.00 83 1014.8
20240526150730 85 174 2.0 3.0 0.00 0.00 0.00 81 1014.7
20240526150229 84 188 0.0 0.0 0.00 0.00 0.00 82 1014.8
20240526145728 85 174 0.0 1.0 0.00 0.00 0.00 82 1014.7
20240526145228 83 175 0.0 0.0 0.00 0.00 0.00 85 1014.7
20240526144728 83 189 3.0 3.0 0.00 0.00 0.00 87 1014.7
20240526144225 83 175 0.0 1.0 0.00 0.00 0.00 87 1014.9
20240526143724 83 154 0.0 1.0 0.00 0.00 0.00 87 1014.8
20240526143223 83 184 0.0 0.0 0.00 0.00 0.00 90 1014.9
20240526142723 83 133 1.0 1.0 0.00 0.00 0.00 90 1015.3
20240526142222 81 153 1.0 2.0 0.00 0.00 0.00 91 1015.3
20240526141720 81 159 1.0 1.0 0.00 0.00 0.00 94 1015.3
20240526141218 80 147 0.0 1.0 0.00 0.00 0.00 95 1015.1
20240526140717 80 85 2.0 2.0 0.00 0.00 0.00 95 1015.3
20240526140215 80 214 1.0 1.0 0.00 0.00 0.00 95 1015.4
20240526135714 79 190 0.0 1.0 0.00 0.00 0.00 96 1015.2
20240526135213 79 316 2.0 2.0 0.00 0.00 0.00 96 1015.4
20240526134712 79 181 0.0 0.0 0.00 0.00 0.00 96 1015.1
20240526134211 79 201 1.0 2.0 0.00 0.00 0.00 96 1015.4
20240526133710 79 260 1.0 2.0 0.00 0.00 0.00 97 1015.4
20240526133208 78 172 0.0 0.0 0.00 0.00 0.00 98 1015.1
20240526132707 78 181 1.0 1.0 0.00 0.00 0.00 99 1015.3
20240526132206 78 160 0.0 0.0 0.00 0.00 0.00 99 1015.3
20240526131705 78 326 2.0 2.0 0.00 0.00 0.00 99 1015.4
20240526131204 78 171 0.0 0.0 0.00 0.00 0.00 99 1015.0
20240526130703 77 179 0.0 0.0 0.00 0.00 0.00 99 1015.3
20240526130202 77 358 1.0 2.0 0.00 0.00 0.00 99 1015.4
20240526125702 77 184 0.0 0.0 0.00 0.00 0.00 99 1015.3
20240526125201 77 202 1.0 1.0 0.00 0.00 0.00 99 1015.6
20240526124700 77 328 3.0 3.0 0.00 0.00 0.00 99 1015.3
20240526124159 77 283 2.0 2.0 0.00 0.00 0.00 99 1014.6
20240526123657 77 155 0.0 0.0 0.00 0.00 0.00 99 1013.8
20240526123156 77 110 1.0 1.0 0.00 0.00 0.00 99 1013.4
20240526122656 77 142 1.0 1.0 0.00 0.00 0.00 99 1013.4
20240526122155 77 149 1.0 1.0 0.00 0.00 0.00 99 1013.4
20240526121653 77 152 0.0 1.0 0.00 0.00 0.00 99 1013.3
20240526121153 77 154 1.0 1.0 0.00 0.00 0.00 99 1012.9
20240526120651 77 160 0.0 0.0 0.00 0.00 0.00 99 1013.1
20240526120150 76 160 0.0 0.0 0.00 0.00 0.00 99 1013.1
20240526115650 76 160 0.0 0.0 0.00 0.00 0.00 99 1012.5
20240526115148 76 161 0.0 0.0 0.00 0.00 0.00 99 1012.6
20240526114648 76 162 0.0 0.0 0.00 0.00 0.00 99 1012.5
20240526114147 76 162 0.0 0.0 0.00 0.00 0.00 99 1012.3
20240526113645 76 162 0.0 1.0 0.00 0.00 0.00 99 1012.2
20240526113144 76 162 0.0 0.0 0.00 0.00 0.00 99 1012.3
20240526112642 76 161 0.0 1.0 0.00 0.00 0.00 99 1012.2
20240526112141 76 163 0.0 0.0 0.00 0.00 0.00 99 1012.2
20240526111639 76 163 0.0 0.0 0.00 0.00 0.00 99 1012.1
20240526111138 76 163 0.0 1.0 0.00 0.00 0.00 99 1012.1
20240526110636 76 163 0.0 0.0 0.00 0.00 0.00 99 1011.9
20240526110134 76 164 0.0 0.0 0.00 0.00 0.00 99 1012.0
20240526105633 76 164 0.0 0.0 0.00 0.00 0.00 99 1011.8
20240526105131 76 164 0.0 0.0 0.00 0.00 0.00 99 1012.0
20240526104631 76 164 0.0 0.0 0.00 0.00 0.00 99 1011.5
20240526104129 76 161 0.0 0.0 0.00 0.00 0.00 99 1011.7
20240526103628 77 160 0.0 1.0 0.00 0.00 0.00 99 1011.6
20240526103127 77 161 1.0 1.0 0.00 0.00 0.00 99 1011.8
20240526102625 77 175 0.0 0.0 0.00 0.00 0.00 99 1011.5
20240526102124 77 150 1.0 1.0 0.00 0.00 0.00 99 1011.7
20240526101624 77 113 2.0 2.0 0.00 0.00 0.00 99 1011.5
20240526101123 77 185 1.0 1.0 0.00 0.00 0.00 99 1011.4
20240526100622 77 145 2.0 3.0 0.00 0.00 0.00 99 1011.4
20240526100120 77 160 1.0 1.0 0.00 0.00 0.00 99 1011.3
20240526095620 77 150 1.0 1.0 0.00 0.00 0.00 99 1011.2
20240526095120 77 164 2.0 2.0 0.00 0.00 0.00 98 1011.2
20240526094620 77 115 2.0 2.0 0.00 0.00 0.00 98 1011.0
20240526094119 77 177 6.0 7.0 0.00 0.00 0.00 98 1010.9
20240526093618 77 162 0.0 0.0 0.00 0.00 0.00 98 1011.0
20240526093117 77 127 2.0 2.0 0.00 0.00 0.00 98 1011.3
20240526092615 77 115 3.0 5.0 0.00 0.00 0.00 98 1011.2
20240526092114 77 143 2.0 2.0 0.00 0.00 0.00 98 1011.1
20240526091612 77 162 2.0 3.0 0.00 0.00 0.00 98 1011.2
20240526091110 77 167 4.0 6.0 0.00 0.00 0.00 98 1011.3
20240526090609 77 117 2.0 2.0 0.00 0.00 0.00 98 1011.2
20240526090108 77 131 2.0 2.0 0.00 0.00 0.00 98 1011.4
20240526085608 77 174 0.0 0.0 0.00 0.00 0.00 98 1011.5
20240526085107 77 170 0.0 1.0 0.00 0.00 0.00 98 1011.4
20240526084607 77 174 2.0 2.0 0.00 0.00 0.00 98 1011.3
20240526084106 77 140 1.0 1.0 0.00 0.00 0.00 98 1011.5
20240526083604 77 179 1.0 1.0 0.00 0.00 0.00 98 1011.3
20240526083104 77 182 3.0 3.0 0.00 0.00 0.00 98 1011.3
20240526082604 77 167 0.0 0.0 0.00 0.00 0.00 98 1011.3
20240526082103 77 176 1.0 1.0 0.00 0.00 0.00 98 1011.3
20240526081602 77 120 4.0 5.0 0.00 0.00 0.00 98 1011.2
20240526081100 77 166 1.0 1.0 0.00 0.00 0.00 98 1011.3
20240526080559 77 140 2.0 2.0 0.00 0.00 0.00 98 1011.2
20240526080059 77 173 0.0 0.0 0.00 0.00 0.00 98 1011.3
20240526075559 77 149 2.0 2.0 0.00 0.00 0.00 98 1011.6
20240526075059 77 117 2.0 3.0 0.00 0.00 0.00 98 1011.5
20240526074558 77 62 3.0 5.0 0.00 0.00 0.00 98 1011.4
20240526074057 77 167 1.0 1.0 0.00 0.00 0.00 98 1011.5
20240526073556 77 157 2.0 2.0 0.00 0.00 0.00 98 1011.7
20240526073055 77 125 0.0 1.0 0.00 0.00 0.00 98 1011.4
20240526072554 77 136 3.0 3.0 0.00 0.00 0.00 98 1011.6
20240526072053 77 176 2.0 2.0 0.00 0.00 0.00 97 1011.7
20240526071552 77 153 2.0 2.0 0.00 0.00 0.00 97 1012.0
20240526071050 78 125 1.0 2.0 0.00 0.00 0.00 97 1011.7
20240526070549 78 174 2.0 2.0 0.00 0.00 0.00 97 1011.8
20240526070048 78 162 1.0 1.0 0.00 0.00 0.00 96 1012.1
20240526065547 78 142 2.0 3.0 0.00 0.00 0.00 96 1012.2
20240526065048 78 166 1.0 2.0 0.00 0.00 0.00 96 1012.0
20240526064547 78 137 2.0 2.0 0.00 0.00 0.00 96 1012.3
20240526064045 78 153 2.0 2.0 0.00 0.00 0.00 95 1012.5
20240526063544 79 190 2.0 3.0 0.00 0.00 0.00 95 1012.9
20240526063043 79 211 3.0 3.0 0.00 0.00 0.00 95 1012.9
20240526062543 79 151 1.0 2.0 0.00 0.00 0.00 95 1012.7
20240526062042 79 182 1.0 1.0 0.00 0.00 0.00 95 1012.6
20240526061542 79 181 5.0 7.0 0.00 0.00 0.00 95 1012.6
20240526061040 79 144 3.0 3.0 0.00 0.00 0.00 95 1012.5
20240526060539 79 121 3.0 5.0 0.00 0.00 0.00 95 1012.5
20240526060039 79 196 3.0 3.0 0.00 0.00 0.00 95 1012.7
20240526055540 79 213 2.0 2.0 0.00 0.00 0.00 95 1012.5
20240526055040 79 174 1.0 2.0 0.00 0.00 0.00 95 1012.6
20240526054539 79 112 3.0 3.0 0.00 0.00 0.00 95 1012.5
20240526054037 79 106 4.0 6.0 0.00 0.00 0.00 95 1012.4
20240526053536 79 199 4.0 5.0 0.00 0.00 0.00 95 1012.8
20240526053034 79 102 3.0 5.0 0.00 0.00 0.00 95 1012.7
20240526052533 79 158 3.0 3.0 0.00 0.00 0.00 95 1012.3
20240526052031 79 178 4.0 6.0 0.00 0.00 0.00 95 1012.6
20240526051530 78 148 5.0 8.0 0.00 0.00 0.00 95 1012.9
20240526051029 78 144 2.0 2.0 0.00 0.00 0.00 95 1012.8
20240526050527 78 120 3.0 5.0 0.00 0.00 0.00 95 1012.7
20240526050027 78 150 2.0 2.0 0.00 0.00 0.00 95 1012.6
20240526045525 78 182 5.0 6.0 0.00 0.00 0.00 95 1012.6
20240526045024 78 154 1.0 2.0 0.00 0.00 0.00 95 1012.6
20240526044522 78 145 2.0 2.0 0.00 0.00 0.00 95 1012.7
20240526044022 78 171 6.0 8.0 0.00 0.00 0.00 95 1012.8
20240526043521 78 115 3.0 5.0 0.00 0.00 0.00 96 1012.7
20240526043020 78 109 1.0 2.0 0.00 0.00 0.00 96 1012.8
20240526042519 78 143 1.0 2.0 0.00 0.00 0.00 96 1012.7
20240526042018 78 160 0.0 1.0 0.00 0.00 0.00 95 1012.7
20240526041517 78 168 2.0 3.0 0.00 0.00 0.00 95 1013.0
20240526041015 78 171 4.0 5.0 0.00 0.00 0.00 96 1013.0
20240526040514 78 175 1.0 1.0 0.00 0.00 0.00 95 1012.9
20240526040013 78 113 1.0 2.0 0.00 0.00 0.00 95 1013.0
20240526035512 78 162 0.0 1.0 0.00 0.00 0.00 95 1013.1
20240526035012 78 169 1.0 1.0 0.00 0.00 0.00 94 1013.3
20240526034510 78 118 4.0 6.0 0.00 0.00 0.00 94 1013.2
20240526034009 78 137 2.0 2.0 0.00 0.00 0.00 94 1013.4
20240526033507 78 166 3.0 5.0 0.00 0.00 0.00 94 1013.5
20240526033007 78 169 0.0 1.0 0.00 0.00 0.00 93 1013.4
20240526032507 78 167 1.0 1.0 0.00 0.00 0.00 93 1013.3
20240526032005 78 185 2.0 3.0 0.00 0.00 0.00 92 1013.2
20240526031503 78 161 1.0 1.0 0.00 0.00 0.00 92 1013.2
20240526031001 78 183 4.0 6.0 0.00 0.00 0.00 92 1012.9
20240526030459 78 154 1.0 1.0 0.00 0.00 0.00 91 1013.1
20240526025958 78 140 1.0 1.0 0.00 0.00 0.00 91 1012.8
20240526025457 78 162 4.0 5.0 0.00 0.00 0.00 90 1012.8
20240526024956 78 139 2.0 3.0 0.00 0.00 0.00 90 1013.0
20240526024454 79 172 1.0 1.0 0.00 0.00 0.00 90 1012.9
20240526023952 79 138 3.0 5.0 0.00 0.00 0.00 89 1012.9
20240526023451 79 154 2.0 2.0 0.00 0.00 0.00 88 1013.0
20240526022949 79 154 2.0 3.0 0.00 0.00 0.00 88 1013.0
20240526022448 79 160 2.0 2.0 0.00 0.00 0.00 88 1012.7
20240526021946 79 141 4.0 5.0 0.00 0.00 0.00 87 1013.0
20240526021446 79 131 3.0 3.0 0.00 0.00 0.00 88 1012.6
20240526020945 79 154 2.0 2.0 0.00 0.00 0.00 87 1012.7
20240526020443 80 158 0.0 1.0 0.00 0.00 0.00 87 1012.3
20240526015943 80 145 4.0 6.0 0.00 0.00 0.00 86 1012.5
20240526015442 80 151 1.0 1.0 0.00 0.00 0.00 86 1012.3
20240526014940 80 144 2.0 3.0 0.00 0.00 0.00 87 1012.6
20240526014438 80 150 2.0 2.0 0.00 0.00 0.00 86 1012.6
20240526013938 80 170 3.0 3.0 0.00 0.00 0.00 85 1012.4
20240526013437 80 148 2.0 3.0 0.00 0.00 0.00 85 1012.4
20240526012937 81 158 2.0 3.0 0.00 0.00 0.00 85 1012.5
20240526012436 81 131 3.0 3.0 0.00 0.00 0.00 84 1012.6
20240526011935 81 137 2.0 2.0 0.00 0.00 0.00 84 1012.2
20240526011434 82 170 1.0 1.0 0.00 0.00 0.00 84 1012.3
20240526010933 82 149 1.0 1.0 0.00 0.00 0.00 84 1012.1
20240526010431 82 155 3.0 3.0 0.00 0.00 0.00 83 1012.0
20240526005930 82 167 5.0 6.0 0.00 0.00 0.00 83 1012.3
20240526005428 82 174 4.0 5.0 0.00 0.00 0.00 83 1012.2
20240526004927 83 195 4.0 5.0 0.00 0.00 0.00 83 1012.2
20240526004426 83 118 4.0 5.0 0.00 0.00 0.00 82 1012.4
20240526003925 83 119 3.0 3.0 0.00 0.00 0.00 83 1012.1
20240526003424 84 179 6.0 8.0 0.00 0.00 0.00 82 1012.2
20240526002924 84 98 3.0 3.0 0.00 0.00 0.00 83 1012.2
20240526002422 84 172 3.0 3.0 0.00 0.00 0.00 82 1012.3
20240526001921 84 149 3.0 3.0 0.00 0.00 0.00 82 1011.9
20240526001420 84 132 1.0 2.0 0.00 0.00 0.00 81 1012.2
20240526000919 85 137 3.0 6.0 0.00 0.00 0.00 81 1012.1
20240526000418 85 112 4.0 6.0 0.00 0.00 0.00 80 1011.8
20240525235918 85 173 1.0 1.0 0.00 0.00 0.00 81 1012.0
20240525235417 85 136 3.0 3.0 0.00 0.00 0.00 80 1011.8
20240525234916 86 162 3.0 3.0 0.00 0.00 0.00 80 1011.8
20240525234415 86 151 5.0 6.0 0.00 0.00 0.00 80 1012.0
20240525233915 86 156 6.0 7.0 0.00 0.00 0.00 79 1011.9
20240525233414 86 168 1.0 3.0 0.00 0.00 0.00 79 1011.8
20240525232912 87 142 2.0 3.0 0.00 0.00 0.00 79 1012.2
20240525232408 87 95 1.0 2.0 0.00 0.00 0.00 78 1011.9
20240525231906 87 148 5.0 7.0 0.00 0.00 0.00 77 1012.0
20240525231405 87 169 5.0 7.0 0.00 0.00 0.00 77 1011.8
20240525230904 87 205 3.0 3.0 0.00 0.00 0.00 77 1011.7
20240525230402 88 163 3.0 5.0 0.00 0.00 0.00 77 1012.0
20240525225901 88 154 1.0 2.0 0.00 0.00 0.00 77 1011.8
20240525225359 87 199 4.0 6.0 0.00 0.00 0.00 77 1012.2
20240525224858 88 89 3.0 3.0 0.00 0.00 0.00 78 1011.9
20240525224357 88 173 3.0 3.0 0.00 0.00 0.00 78 1012.0
20240525223855 88 147 7.0 8.0 0.00 0.00 0.00 77 1011.9
20240525223355 88 181 3.0 5.0 0.00 0.00 0.00 77 1011.7
20240525222855 88 83 6.0 7.0 0.00 0.00 0.00 77 1011.7
20240525222355 88 136 2.0 3.0 0.00 0.00 0.00 77 1011.5
20240525221855 89 112 3.0 5.0 0.00 0.00 0.00 76 1011.7
20240525221354 89 114 3.0 6.0 0.00 0.00 0.00 75 1011.8
20240525220853 90 156 9.0 13.0 0.00 0.00 0.00 75 1011.6
20240525220353 90 176 2.0 3.0 0.00 0.00 0.00 76 1011.6
20240525215852 89 120 3.0 8.0 0.00 0.00 0.00 76 1011.5
20240525215350 90 127 3.0 5.0 0.00 0.00 0.00 76 1011.7
20240525214848 90 116 5.0 8.0 0.00 0.00 0.00 75 1011.5
20240525214346 90 192 2.0 2.0 0.00 0.00 0.00 76 1011.5
20240525213846 90 207 4.0 7.0 0.00 0.00 0.00 75 1011.6
20240525213345 90 173 8.0 10.0 0.00 0.00 0.00 74 1011.6
20240525212845 89 149 5.0 6.0 0.00 0.00 0.00 77 1011.7
20240525212344 89 218 2.0 3.0 0.00 0.00 0.00 76 1011.7
20240525211842 89 139 5.0 8.0 0.00 0.00 0.00 77 1011.8